createdAt,value
2022-12-23T00:01:22.306Z,2.22
2022-12-23T00:07:25.684Z,2.00
2022-12-23T00:13:48.316Z,2.13
2022-12-23T00:19:51.722Z,2.35
2022-12-23T00:25:55.365Z,2.67
2022-12-23T00:32:00.266Z,2.28
2022-12-23T00:38:03.735Z,1.60
2022-12-23T00:44:07.306Z,2.17
2022-12-23T00:50:12.772Z,2.00
2022-12-23T00:56:16.341Z,1.88
2022-12-23T01:02:37.223Z,2.15
2022-12-23T01:08:42.351Z,2.10
2022-12-23T01:14:45.960Z,2.30
2022-12-23T01:20:49.383Z,1.90
2022-12-23T01:26:54.378Z,2.25
2022-12-23T01:32:57.796Z,1.90
2022-12-23T01:39:01.184Z,2.28
2022-12-23T01:45:06.812Z,2.58
2022-12-23T01:51:12.630Z,2.53
2022-12-23T01:57:16.063Z,2.33
2022-12-23T02:03:38.582Z,2.22
2022-12-23T02:09:42.338Z,2.22
2022-12-23T02:16:06.233Z,2.55
2022-12-23T02:22:21.156Z,2.67
2022-12-23T02:28:38.755Z,2.67
2022-12-23T02:34:48.581Z,2.00
2022-12-23T02:40:56.039Z,2.85
2022-12-23T02:47:01.111Z,2.47
2022-12-23T02:53:07.991Z,2.22
2022-12-23T02:59:13.205Z,2.03
2022-12-23T03:05:27.395Z,2.50
2022-12-23T03:11:40.305Z,2.50
2022-12-23T03:17:51.955Z,2.40
2022-12-23T03:23:57.916Z,2.28
2022-12-23T03:30:05.273Z,2.88
2022-12-23T03:36:11.888Z,2.40
2022-12-23T03:42:17.979Z,3.13
2022-12-23T03:48:24.565Z,2.60
2022-12-23T03:54:29.730Z,2.80
2022-12-23T04:00:36.034Z,3.53
2022-12-23T04:06:42.682Z,3.38
2022-12-23T04:12:46.282Z,2.92
2022-12-23T04:18:52.621Z,2.80
2022-12-23T04:24:57.400Z,3.50
2022-12-23T04:31:01.008Z,3.47
2022-12-23T04:37:04.462Z,3.13
2022-12-23T04:43:09.274Z,3.10
2022-12-23T04:49:12.660Z,3.40
2022-12-23T04:55:16.195Z,3.25
2022-12-23T05:01:21.171Z,3.28
2022-12-23T05:07:24.805Z,3.70
2022-12-23T05:13:28.513Z,3.67
2022-12-23T05:19:33.282Z,3.88
2022-12-23T05:25:37.157Z,3.83
2022-12-23T05:31:40.559Z,4.32
2022-12-23T05:37:45.314Z,3.70
2022-12-23T05:43:48.721Z,4.20
2022-12-23T05:49:52.354Z,3.55
2022-12-23T05:55:57.086Z,4.20
2022-12-23T06:02:00.639Z,4.05
2022-12-23T06:08:04.339Z,6.75
2022-12-23T06:14:09.176Z,5.55
2022-12-23T06:20:19.943Z,3.85
2022-12-23T06:26:24.394Z,4.03
2022-12-23T06:32:34.436Z,3.50
2022-12-23T06:38:41.237Z,3.53
2022-12-23T06:44:44.799Z,3.47
2022-12-23T06:50:49.540Z,3.20
2022-12-23T06:56:52.928Z,3.45
2022-12-23T07:02:56.470Z,3.65
2022-12-23T07:09:01.796Z,3.80
2022-12-23T07:15:06.036Z,3.08
2022-12-23T07:21:19.770Z,5.05
2022-12-23T07:27:29.510Z,3.97
2022-12-23T07:33:32.937Z,4.18
2022-12-23T07:39:36.650Z,3.20
2022-12-23T07:45:42.027Z,4.05
2022-12-23T07:51:45.403Z,3.67
2022-12-23T07:57:49.851Z,3.90
2022-12-23T08:03:56.917Z,3.25
2022-12-23T08:10:00.528Z,3.50
2022-12-23T08:16:04.424Z,3.65
2022-12-23T08:22:09.213Z,3.42
2022-12-23T08:28:12.658Z,3.92
2022-12-23T08:34:16.005Z,4.40
2022-12-23T08:40:20.918Z,3.53
2022-12-23T08:46:24.957Z,4.53
2022-12-23T08:52:28.373Z,4.90
2022-12-23T08:58:37.915Z,5.70
2022-12-23T09:04:41.714Z,5.80
2022-12-23T09:10:45.892Z,5.65
2022-12-23T09:16:53.145Z,6.63
2022-12-23T09:22:57.115Z,10.25
2022-12-23T09:29:00.554Z,6.95
2022-12-23T09:35:05.511Z,8.00
2022-12-23T09:41:14.048Z,7.22
2022-12-23T09:47:19.395Z,7.43
2022-12-23T09:53:25.710Z,5.68
2022-12-23T09:59:44.795Z,5.85
2022-12-23T10:05:52.216Z,5.70
2022-12-23T10:11:57.171Z,5.55
2022-12-23T10:18:02.570Z,5.35
2022-12-23T10:24:09.054Z,5.63
2022-12-23T10:36:46.840Z,5.10
2022-12-23T10:42:58.671Z,5.10
2022-12-23T10:49:05.674Z,5.88
2022-12-23T10:55:15.494Z,7.30
2022-12-23T11:01:26.508Z,7.88
2022-12-23T11:07:47.877Z,7.90
2022-12-23T11:13:51.487Z,5.43
2022-12-23T11:20:09.650Z,3.90
2022-12-23T11:26:15.474Z,4.03
2022-12-23T11:32:21.781Z,3.47
2022-12-23T11:38:25.155Z,3.08
2022-12-23T11:44:31.044Z,3.35
2022-12-23T11:50:36.013Z,2.53
2022-12-23T11:56:41.352Z,2.05
2022-12-23T12:02:48.136Z,2.28
2022-12-23T12:08:53.213Z,2.25
2022-12-23T12:14:57.641Z,2.20
2022-12-23T12:21:03.942Z,1.50
2022-12-23T12:27:08.574Z,1.70
2022-12-23T12:33:16.319Z,1.25
2022-12-23T12:39:22.865Z,1.38
2022-12-23T12:45:28.566Z,0.93
2022-12-23T12:51:35.602Z,1.00
2022-12-23T12:57:41.731Z,0.90
2022-12-23T13:03:59.300Z,0.80
2022-12-23T13:10:05.729Z,0.93
2022-12-23T13:16:14.862Z,0.80
2022-12-23T13:22:19.426Z,0.90
2022-12-23T13:28:29.792Z,0.98
2022-12-23T13:34:39.977Z,1.42
2022-12-23T13:40:48.040Z,1.30
2022-12-23T13:46:56.956Z,1.20
2022-12-23T13:53:11.580Z,1.48
2022-12-23T13:59:16.289Z,2.05
2022-12-23T14:05:30.881Z,1.10
2022-12-23T14:11:36.271Z,2.05
2022-12-23T14:17:44.959Z,1.50
2022-12-23T14:24:02.559Z,2.28
2022-12-23T14:30:13.456Z,2.15
2022-12-23T14:36:23.065Z,1.98
2022-12-23T14:42:35.895Z,1.85
2022-12-23T14:49:16.249Z,1.45
2022-12-23T14:55:39.819Z,1.70
2022-12-23T15:01:45.510Z,2.67
2022-12-23T15:07:49.165Z,1.75
2022-12-23T15:13:53.908Z,1.70
2022-12-23T15:20:06.502Z,2.47
2022-12-23T15:26:11.708Z,4.03
2022-12-23T15:32:15.170Z,3.60
2022-12-23T15:38:20.305Z,2.90
2022-12-23T15:44:24.782Z,2.40
2022-12-23T15:50:29.263Z,3.22
2022-12-23T15:56:35.096Z,4.13
2022-12-23T16:09:02.789Z,2.83
2022-12-23T16:21:37.439Z,4.47
2022-12-23T16:27:41.688Z,3.55
2022-12-23T16:33:45.848Z,3.85
2022-12-23T16:39:50.608Z,3.15
2022-12-23T16:45:55.883Z,3.47
2022-12-23T16:51:59.393Z,2.40
2022-12-23T16:58:04.367Z,4.43
2022-12-23T17:04:08.295Z,2.40
2022-12-23T17:10:12.218Z,3.75
2022-12-23T17:16:19.924Z,3.65
2022-12-23T17:22:23.640Z,3.13
2022-12-23T17:28:29.718Z,4.03
2022-12-23T17:34:34.643Z,3.95
2022-12-23T17:40:38.745Z,3.78
2022-12-23T17:46:42.506Z,4.68
2022-12-23T17:52:47.264Z,3.70
2022-12-23T17:58:51.414Z,3.35
2022-12-23T18:04:54.945Z,3.92
2022-12-23T18:11:00.060Z,3.30
2022-12-23T18:17:03.585Z,3.63
2022-12-23T18:23:07.514Z,1.90
2022-12-23T18:29:12.442Z,3.55
2022-12-23T18:35:24.801Z,3.55
2022-12-23T18:41:28.992Z,3.15
2022-12-23T18:47:34.392Z,1.90
2022-12-23T18:53:37.790Z,2.55
2022-12-23T18:59:41.179Z,2.97
2022-12-23T19:05:48.923Z,3.53
2022-12-23T19:11:54.464Z,4.30
2022-12-23T19:17:57.993Z,4.20
2022-12-23T19:24:02.759Z,5.47
2022-12-23T19:30:06.875Z,4.10
2022-12-23T19:36:11.112Z,4.25
2022-12-23T19:42:16.015Z,3.92
2022-12-23T19:48:19.482Z,3.78
2022-12-23T19:54:23.146Z,3.50
2022-12-23T20:00:27.907Z,3.75
2022-12-23T20:06:33.575Z,3.80
2022-12-23T20:12:36.958Z,2.58
2022-12-23T20:18:41.903Z,3.20
2022-12-23T20:24:45.501Z,3.80
2022-12-23T20:30:49.486Z,3.92
2022-12-23T20:36:54.430Z,2.97
2022-12-23T20:42:58.306Z,3.85
2022-12-23T20:49:02.217Z,4.05
2022-12-23T20:55:07.525Z,3.30
2022-12-23T21:01:10.972Z,4.13
2022-12-23T21:07:14.462Z,3.92
2022-12-23T21:13:19.211Z,4.07
2022-12-23T21:19:23.227Z,4.35
2022-12-23T21:25:26.771Z,3.85
2022-12-23T21:31:32.747Z,4.03
2022-12-23T21:37:36.178Z,4.47
2022-12-23T21:43:40.803Z,3.75
2022-12-23T21:49:45.896Z,4.50
2022-12-23T21:55:49.286Z,4.20
2022-12-23T22:01:52.802Z,3.28
2022-12-23T22:07:57.620Z,3.60
2022-12-23T22:14:01.511Z,3.78
2022-12-23T22:20:05.776Z,4.47
2022-12-23T22:26:12.431Z,3.85
2022-12-23T22:32:15.802Z,3.20
2022-12-23T22:38:19.428Z,3.50
2022-12-23T22:44:24.345Z,3.80
2022-12-23T22:50:27.890Z,3.45
2022-12-23T22:56:31.392Z,3.40
2022-12-23T23:02:36.182Z,3.45
2022-12-23T23:08:39.635Z,4.03
2022-12-23T23:14:55.434Z,3.35
2022-12-23T23:21:00.265Z,3.78
2022-12-23T23:27:03.659Z,3.70
2022-12-23T23:33:07.142Z,2.95
2022-12-23T23:39:12.667Z,3.15
2022-12-23T23:45:16.205Z,4.03
2022-12-23T23:51:19.853Z,3.05
2022-12-23T23:57:26.337Z,3.10
